createdAt,value
2023-04-09T00:00:34.897Z,5.78
2023-04-09T00:03:37.733Z,6.05
2023-04-09T00:06:40.046Z,5.45
2023-04-09T00:09:42.312Z,5.95
2023-04-09T00:12:44.582Z,5.97
2023-04-09T00:15:46.786Z,6.10
2023-04-09T00:18:49.231Z,5.03
2023-04-09T00:21:52.558Z,5.80
2023-04-09T00:24:54.821Z,5.18
2023-04-09T00:27:57.273Z,5.40
2023-04-09T00:30:59.682Z,5.25
2023-04-09T00:34:01.993Z,6.03
2023-04-09T00:37:04.439Z,5.68
2023-04-09T00:40:06.971Z,4.75
2023-04-09T00:43:09.221Z,6.17
2023-04-09T00:46:11.614Z,5.30
2023-04-09T00:49:13.971Z,6.05
2023-04-09T00:52:16.302Z,4.90
2023-04-09T00:55:18.693Z,5.15
2023-04-09T00:58:21.552Z,5.47
2023-04-09T01:01:23.761Z,5.38
2023-04-09T01:04:26.107Z,4.40
2023-04-09T01:08:01.136Z,5.43
2023-04-09T01:11:18.584Z,4.55
2023-04-09T01:14:32.763Z,5.97
2023-04-09T01:17:46.777Z,5.10
2023-04-09T01:21:02.861Z,5.88
2023-04-09T01:24:11.633Z,5.95
2023-04-09T01:27:17.694Z,7.13
2023-04-09T01:30:29.471Z,5.53
2023-04-09T01:33:32.409Z,6.05
2023-04-09T01:36:35.837Z,6.20
2023-04-09T01:39:39.099Z,5.32
2023-04-09T01:42:41.433Z,5.82
2023-04-09T01:45:44.384Z,4.77
2023-04-09T01:48:46.968Z,5.20
2023-04-09T01:51:49.440Z,5.95
2023-04-09T01:54:51.691Z,6.00
2023-04-09T01:57:53.931Z,6.57
2023-04-09T02:01:00.121Z,5.00
2023-04-09T02:04:08.135Z,4.97
2023-04-09T02:07:14.118Z,5.38
2023-04-09T02:10:17.668Z,4.97
2023-04-09T02:13:22.219Z,6.05
2023-04-09T02:16:25.758Z,5.73
2023-04-09T02:19:40.509Z,5.30
2023-04-09T02:22:42.762Z,4.72
2023-04-09T02:25:44.917Z,4.45
2023-04-09T02:28:47.098Z,5.10
2023-04-09T02:31:50.791Z,4.67
2023-04-09T02:34:52.939Z,4.35
2023-04-09T02:37:55.736Z,5.43
2023-04-09T02:40:58.076Z,4.90
2023-04-09T02:44:00.229Z,6.03
2023-04-09T02:47:03.290Z,4.10
2023-04-09T02:50:06.167Z,6.18
2023-04-09T02:53:10.060Z,5.72
2023-04-09T02:56:12.400Z,5.53
2023-04-09T02:59:14.622Z,4.93
2023-04-09T03:02:17.137Z,3.67
2023-04-09T03:05:19.353Z,6.03
2023-04-09T03:08:21.504Z,4.72
2023-04-09T03:11:23.766Z,5.15
2023-04-09T03:14:26.008Z,5.35
2023-04-09T03:17:29.220Z,5.20
2023-04-09T03:20:31.381Z,5.10
2023-04-09T03:23:35.217Z,5.47
2023-04-09T03:26:38.085Z,5.68
2023-04-09T03:29:42.061Z,4.40
2023-04-09T03:32:44.585Z,6.90
2023-04-09T03:35:48.620Z,5.60
2023-04-09T03:38:53.392Z,4.82
2023-04-09T03:42:01.927Z,5.15
2023-04-09T03:45:10.510Z,5.57
2023-04-09T03:48:17.601Z,5.43
2023-04-09T03:51:20.201Z,4.25
2023-04-09T03:54:31.652Z,5.50
2023-04-09T03:57:34.975Z,5.57
2023-04-09T04:00:38.565Z,5.80
2023-04-09T04:04:07.153Z,4.77
2023-04-09T04:07:13.862Z,4.60
2023-04-09T04:10:22.692Z,4.88
2023-04-09T04:13:25.118Z,5.63
2023-04-09T04:16:32.598Z,4.68
2023-04-09T04:19:35.754Z,5.17
2023-04-09T04:22:38.165Z,5.95
2023-04-09T04:25:41.355Z,5.32
2023-04-09T04:28:45.801Z,5.30
2023-04-09T04:31:58.476Z,5.30
2023-04-09T04:35:06.734Z,4.97
2023-04-09T04:38:09.176Z,5.55
2023-04-09T04:41:13.859Z,4.95
2023-04-09T04:44:21.229Z,4.63
2023-04-09T04:47:27.020Z,5.93
2023-04-09T04:50:29.304Z,4.70
2023-04-09T04:53:39.064Z,4.55
2023-04-09T04:56:45.870Z,5.10
2023-04-09T05:00:14.528Z,4.15
2023-04-09T05:03:17.104Z,4.65
2023-04-09T05:06:31.563Z,5.13
2023-04-09T05:09:36.387Z,5.00
2023-04-09T05:12:43.621Z,5.40
2023-04-09T05:15:48.198Z,5.32
2023-04-09T05:18:51.531Z,5.00
2023-04-09T05:21:53.976Z,5.03
2023-04-09T05:24:57.965Z,5.25
2023-04-09T05:28:01.312Z,5.50
2023-04-09T05:31:04.624Z,5.50
2023-04-09T05:34:09.178Z,5.32
2023-04-09T05:37:16.425Z,5.10
2023-04-09T05:40:24.230Z,5.28
2023-04-09T05:43:28.125Z,5.10
2023-04-09T05:46:31.500Z,5.68
2023-04-09T05:49:35.355Z,4.60
2023-04-09T05:52:43.693Z,5.70
2023-04-09T05:55:51.510Z,6.50
2023-04-09T05:58:57.343Z,4.75
2023-04-09T06:01:59.763Z,5.28
2023-04-09T06:05:02.186Z,5.75
2023-04-09T06:08:04.761Z,4.67
2023-04-09T06:11:10.539Z,5.03
2023-04-09T06:14:16.551Z,5.70
2023-04-09T06:17:18.784Z,5.45
2023-04-09T06:20:21.508Z,4.55
2023-04-09T06:23:24.102Z,6.37
2023-04-09T06:26:26.395Z,4.07
2023-04-09T06:29:28.695Z,5.47
2023-04-09T06:32:33.637Z,5.30
2023-04-09T06:35:40.079Z,5.40
2023-04-09T06:38:42.233Z,5.03
2023-04-09T06:41:44.430Z,4.22
2023-04-09T06:44:58.898Z,4.57
2023-04-09T06:48:01.183Z,4.70
2023-04-09T06:51:03.531Z,4.75
2023-04-09T06:54:05.754Z,4.20
2023-04-09T06:57:08.522Z,3.78
2023-04-09T07:00:11.061Z,4.85
2023-04-09T07:03:13.435Z,4.18
2023-04-09T07:06:15.797Z,4.47
2023-04-09T07:09:18.606Z,2.97
2023-04-09T07:12:33.606Z,2.78
2023-04-09T07:15:35.974Z,3.65
2023-04-09T07:18:38.225Z,2.63
2023-04-09T07:21:40.592Z,2.55
2023-04-09T07:24:42.785Z,3.50
2023-04-09T07:27:45.015Z,3.22
2023-04-09T07:30:47.253Z,4.10
2023-04-09T07:33:49.511Z,4.43
2023-04-09T07:36:52.261Z,3.55
2023-04-09T07:39:54.446Z,3.03
2023-04-09T07:42:58.159Z,4.30
2023-04-09T07:46:00.473Z,3.40
2023-04-09T07:49:02.738Z,3.25
2023-04-09T07:52:05.641Z,3.20
2023-04-09T07:55:07.947Z,2.63
2023-04-09T07:58:10.235Z,2.45
2023-04-09T08:01:12.479Z,3.15
2023-04-09T08:04:14.894Z,2.80
2023-04-09T08:07:17.159Z,3.05
2023-04-09T08:10:19.502Z,3.20
2023-04-09T08:13:23.234Z,3.50
2023-04-09T08:16:25.579Z,4.00
2023-04-09T08:19:27.836Z,4.05
2023-04-09T08:22:30.598Z,3.45
2023-04-09T08:25:32.756Z,4.27
2023-04-09T08:28:34.927Z,3.67
2023-04-09T08:31:37.596Z,4.53
2023-04-09T08:34:39.858Z,4.38
2023-04-09T08:37:43.185Z,3.40
2023-04-09T08:40:45.482Z,3.77
2023-04-09T08:43:57.624Z,3.90
2023-04-09T08:47:00.585Z,4.55
2023-04-09T08:50:02.831Z,4.15
2023-04-09T08:53:06.153Z,3.78
2023-04-09T08:56:08.389Z,3.50
2023-04-09T08:59:10.564Z,3.63
2023-04-09T09:02:12.931Z,4.22
2023-04-09T09:05:15.393Z,4.28
2023-04-09T09:08:24.586Z,3.95
2023-04-09T09:11:27.293Z,3.90
2023-04-09T09:14:33.114Z,3.97
2023-04-09T09:17:53.008Z,4.57
2023-04-09T09:21:09.622Z,3.55
2023-04-09T09:24:18.116Z,4.00
2023-04-09T09:27:33.416Z,3.40
2023-04-09T09:30:36.645Z,3.35
2023-04-09T09:33:39.238Z,3.47
2023-04-09T09:36:41.439Z,3.95
2023-04-09T09:39:46.622Z,4.20
2023-04-09T09:42:56.008Z,3.63
2023-04-09T09:45:58.406Z,4.32
2023-04-09T09:49:00.749Z,3.90
2023-04-09T09:52:03.476Z,4.40
2023-04-09T09:55:06.577Z,3.95
2023-04-09T09:58:12.173Z,4.20
2023-04-09T10:01:18.314Z,3.78
2023-04-09T10:04:21.408Z,4.22
2023-04-09T10:07:24.155Z,4.32
2023-04-09T10:10:27.337Z,4.78
2023-04-09T10:13:32.432Z,4.57
2023-04-09T10:16:35.531Z,4.22
2023-04-09T10:19:40.388Z,4.85
2023-04-09T10:22:44.737Z,3.85
2023-04-09T10:25:47.009Z,4.28
2023-04-09T10:29:05.294Z,4.40
2023-04-09T10:32:07.625Z,4.13
2023-04-09T10:35:09.831Z,4.15
2023-04-09T10:38:14.148Z,4.15
2023-04-09T10:41:25.300Z,4.55
2023-04-09T10:44:28.223Z,4.50
2023-04-09T10:47:34.512Z,4.38
2023-04-09T10:50:37.027Z,4.57
2023-04-09T10:53:39.256Z,4.47
2023-04-09T10:57:01.863Z,4.78
2023-04-09T11:00:04.173Z,4.00
2023-04-09T11:03:13.505Z,4.57
2023-04-09T11:06:18.316Z,4.50
2023-04-09T11:09:20.562Z,3.83
2023-04-09T11:12:22.781Z,4.13
2023-04-09T11:15:25.078Z,4.00
2023-04-09T11:18:28.486Z,4.03
2023-04-09T11:21:31.512Z,4.35
2023-04-09T11:24:43.154Z,4.18
2023-04-09T11:27:47.009Z,4.32
2023-04-09T11:30:52.588Z,4.40
2023-04-09T11:33:54.782Z,4.47
2023-04-09T11:36:59.072Z,4.63
2023-04-09T11:40:01.274Z,4.80
2023-04-09T11:43:03.657Z,5.05
2023-04-09T11:46:08.042Z,4.50
2023-04-09T11:49:10.370Z,3.92
2023-04-09T11:52:13.170Z,4.80
2023-04-09T11:55:25.223Z,5.38
2023-04-09T11:58:28.040Z,4.85
2023-04-09T12:01:33.723Z,4.20
2023-04-09T12:04:36.310Z,5.15
2023-04-09T12:07:39.639Z,4.20
2023-04-09T12:10:43.251Z,5.00
2023-04-09T12:13:45.873Z,4.88
2023-04-09T12:16:51.113Z,4.37
2023-04-09T12:19:53.298Z,4.70
2023-04-09T12:22:56.060Z,4.97
2023-04-09T12:26:02.298Z,5.00
2023-04-09T12:29:04.843Z,4.63
2023-04-09T12:32:07.164Z,4.20
2023-04-09T12:35:09.442Z,4.43
2023-04-09T12:38:11.993Z,4.97
2023-04-09T12:41:14.318Z,5.13
2023-04-09T12:44:16.589Z,4.97
2023-04-09T12:47:19.297Z,4.47
2023-04-09T12:50:21.668Z,4.50
2023-04-09T12:53:23.878Z,4.30
2023-04-09T12:56:27.030Z,4.63
2023-04-09T12:59:30.479Z,4.82
2023-04-09T13:02:32.915Z,4.27
2023-04-09T13:05:37.995Z,4.63
2023-04-09T13:08:40.328Z,4.93
2023-04-09T13:11:42.525Z,4.57
2023-04-09T13:14:46.674Z,5.38
2023-04-09T13:17:48.962Z,4.50
2023-04-09T13:20:51.449Z,4.53
2023-04-09T13:23:53.654Z,4.65
2023-04-09T13:26:55.860Z,5.03
2023-04-09T13:29:58.201Z,5.00
2023-04-09T13:33:00.868Z,4.47
2023-04-09T13:36:03.531Z,4.78
2023-04-09T13:39:06.050Z,4.80
2023-04-09T13:42:13.688Z,4.80
2023-04-09T13:45:16.775Z,5.07
2023-04-09T13:48:19.001Z,5.17
2023-04-09T13:51:22.096Z,4.18
2023-04-09T13:54:24.306Z,4.43
2023-04-09T13:57:27.383Z,5.40
2023-04-09T14:00:29.570Z,4.65
2023-04-09T14:03:31.922Z,4.07
2023-04-09T14:06:34.183Z,3.72
2023-04-09T14:09:36.484Z,4.75
2023-04-09T14:12:38.929Z,4.25
2023-04-09T14:15:41.792Z,4.32
2023-04-09T14:18:44.024Z,4.40
2023-04-09T14:21:46.341Z,4.10
2023-04-09T14:24:48.584Z,4.40
2023-04-09T14:27:50.913Z,4.65
2023-04-09T14:30:53.123Z,4.22
2023-04-09T14:33:55.375Z,4.30
2023-04-09T14:36:57.623Z,4.55
2023-04-09T14:39:59.814Z,5.15
2023-04-09T14:43:02.017Z,4.05
2023-04-09T14:46:06.455Z,4.70
2023-04-09T14:49:08.778Z,3.90
2023-04-09T14:52:11.032Z,3.88
2023-04-09T14:55:13.767Z,4.50
2023-04-09T14:58:16.655Z,3.60
2023-04-09T15:01:18.929Z,4.20
2023-04-09T15:04:21.363Z,4.17
2023-04-09T15:07:25.148Z,3.97
2023-04-09T15:10:27.735Z,3.75
2023-04-09T15:13:30.175Z,4.25
2023-04-09T15:16:33.446Z,4.38
2023-04-09T15:19:35.940Z,4.40
2023-04-09T15:22:38.159Z,4.32
2023-04-09T15:25:40.333Z,4.70
2023-04-09T15:28:42.596Z,4.47
2023-04-09T15:31:44.869Z,4.50
2023-04-09T15:34:47.131Z,3.93
2023-04-09T15:37:49.602Z,4.90
2023-04-09T15:40:52.367Z,4.82
2023-04-09T15:43:54.644Z,5.13
2023-04-09T15:46:56.925Z,5.20
2023-04-09T15:49:59.271Z,4.83
2023-04-09T15:53:01.482Z,4.63
2023-04-09T15:56:04.238Z,4.10
2023-04-09T15:59:08.109Z,4.50
2023-04-09T16:02:10.490Z,3.90
2023-04-09T16:05:12.780Z,4.60
2023-04-09T16:08:14.957Z,4.95
2023-04-09T16:11:17.765Z,4.60
2023-04-09T16:14:20.007Z,4.32
2023-04-09T16:17:22.378Z,5.03
2023-04-09T16:20:24.610Z,4.57
2023-04-09T16:23:29.945Z,4.50
2023-04-09T16:26:32.756Z,5.10
2023-04-09T16:29:35.008Z,4.75
2023-04-09T16:32:37.259Z,4.60
2023-04-09T16:35:39.897Z,4.30
2023-04-09T16:38:42.194Z,4.22
2023-04-09T16:41:44.624Z,5.20
2023-04-09T16:44:46.819Z,4.55
2023-04-09T16:47:51.423Z,4.78
2023-04-09T16:50:54.917Z,4.20
2023-04-09T16:53:57.147Z,4.57
2023-04-09T16:56:59.389Z,4.82
2023-04-09T17:00:01.713Z,4.55
2023-04-09T17:03:04.428Z,5.07
2023-04-09T17:06:06.835Z,4.60
2023-04-09T17:09:09.463Z,4.97
2023-04-09T17:12:11.705Z,5.03
2023-04-09T17:15:14.247Z,5.25
2023-04-09T17:18:16.510Z,5.28
2023-04-09T17:21:18.685Z,4.93
2023-04-09T17:24:20.884Z,5.35
2023-04-09T17:27:23.115Z,4.82
2023-04-09T17:30:25.854Z,5.93
2023-04-09T17:33:28.141Z,5.70
2023-04-09T17:36:31.663Z,5.50
2023-04-09T17:39:34.020Z,4.93
2023-04-09T17:42:36.267Z,5.80
2023-04-09T17:45:38.522Z,4.10
2023-04-09T17:48:41.696Z,4.97
2023-04-09T17:51:43.956Z,4.77
2023-04-09T17:54:46.750Z,4.45
2023-04-09T17:57:49.019Z,4.68
2023-04-09T18:00:52.948Z,5.20
2023-04-09T18:03:55.545Z,4.97
2023-04-09T18:06:57.909Z,5.43
2023-04-09T18:10:01.182Z,4.60
2023-04-09T18:13:04.820Z,5.70
2023-04-09T18:16:10.772Z,5.10
2023-04-09T18:19:13.180Z,4.72
2023-04-09T18:22:15.535Z,5.30
2023-04-09T18:25:17.865Z,5.07
2023-04-09T18:28:20.111Z,5.10
2023-04-09T18:31:22.513Z,5.53
2023-04-09T18:34:25.805Z,5.00
2023-04-09T18:37:28.014Z,5.10
2023-04-09T18:40:30.379Z,5.15
2023-04-09T18:43:32.598Z,4.82
2023-04-09T18:46:34.926Z,5.80
2023-04-09T18:49:37.535Z,5.15
2023-04-09T18:52:39.739Z,5.20
2023-04-09T18:55:41.942Z,4.80
2023-04-09T18:58:44.165Z,5.20
2023-04-09T19:01:46.402Z,5.50
2023-04-09T19:04:48.898Z,5.63
2023-04-09T19:07:51.139Z,5.17
2023-04-09T19:10:53.697Z,5.50
2023-04-09T19:13:56.138Z,6.57
2023-04-09T19:16:58.836Z,6.90
2023-04-09T19:20:01.147Z,4.97
2023-04-09T19:23:03.546Z,5.60
2023-04-09T19:26:06.287Z,5.18
2023-04-09T19:29:08.698Z,5.55
2023-04-09T19:32:13.372Z,5.57
2023-04-09T19:35:15.924Z,5.18
2023-04-09T19:38:18.542Z,6.67
2023-04-09T19:41:20.790Z,5.45
2023-04-09T19:44:23.109Z,6.18
2023-04-09T19:47:26.662Z,5.97
2023-04-09T19:50:48.483Z,5.53
2023-04-09T19:53:50.685Z,6.50
2023-04-09T19:56:52.933Z,5.80
2023-04-09T19:59:55.595Z,5.93
2023-04-09T20:02:58.030Z,5.47
2023-04-09T20:06:00.986Z,5.65
2023-04-09T20:09:03.353Z,6.50
2023-04-09T20:12:08.652Z,6.90
2023-04-09T20:15:11.161Z,6.63
2023-04-09T20:18:13.381Z,6.20
2023-04-09T20:21:15.581Z,6.07
2023-04-09T20:24:17.939Z,6.40
2023-04-09T20:27:20.154Z,6.90
2023-04-09T20:30:22.734Z,6.30
2023-04-09T20:33:25.047Z,5.97
2023-04-09T20:36:27.502Z,7.38
2023-04-09T20:39:31.251Z,7.60
2023-04-09T20:42:33.544Z,5.72
2023-04-09T20:45:35.941Z,6.47
2023-04-09T20:48:38.185Z,6.25
2023-04-09T20:51:40.626Z,5.55
2023-04-09T20:54:43.154Z,5.93
2023-04-09T20:57:45.433Z,6.40
2023-04-09T21:00:47.676Z,5.57
2023-04-09T21:03:50.178Z,5.65
2023-04-09T21:06:52.511Z,6.15
2023-04-09T21:09:54.808Z,5.40
2023-04-09T21:12:57.010Z,6.20
2023-04-09T21:15:59.233Z,7.00
2023-04-09T21:19:06.924Z,6.88
2023-04-09T21:22:09.253Z,6.68
2023-04-09T21:25:12.715Z,7.47
2023-04-09T21:28:16.786Z,7.30
2023-04-09T21:31:19.229Z,6.38
2023-04-09T21:34:21.607Z,7.60
2023-04-09T21:37:24.234Z,5.93
2023-04-09T21:40:26.436Z,7.17
2023-04-09T21:43:29.284Z,6.93
2023-04-09T21:46:31.549Z,6.93
2023-04-09T21:49:34.388Z,6.80
2023-04-09T21:52:37.437Z,6.35
2023-04-09T21:55:39.731Z,6.40
2023-04-09T21:58:41.984Z,6.50
2023-04-09T22:01:44.801Z,6.30
2023-04-09T22:04:47.187Z,6.68
2023-04-09T22:07:49.413Z,7.20
2023-04-09T22:10:51.596Z,8.27
2023-04-09T22:13:54.193Z,7.55
2023-04-09T22:17:01.614Z,7.80
2023-04-09T22:20:04.919Z,8.30
2023-04-09T22:23:08.708Z,6.68
2023-04-09T22:26:11.025Z,8.00
2023-04-09T22:29:13.563Z,7.47
2023-04-09T22:32:15.958Z,6.85
2023-04-09T22:35:18.674Z,9.18
2023-04-09T22:38:21.315Z,8.05
2023-04-09T22:41:23.546Z,8.90
2023-04-09T22:44:25.786Z,8.60
2023-04-09T22:47:27.998Z,8.38
2023-04-09T22:50:30.218Z,8.15
2023-04-09T22:53:32.416Z,8.05
2023-04-09T22:56:34.675Z,7.87
2023-04-09T22:59:40.269Z,8.40
2023-04-09T23:02:43.404Z,8.38
2023-04-09T23:05:45.797Z,7.85
2023-04-09T23:08:48.012Z,7.60
2023-04-09T23:11:50.491Z,7.33
2023-04-09T23:14:53.689Z,8.93
2023-04-09T23:17:56.215Z,7.40
2023-04-09T23:20:58.494Z,7.07
2023-04-09T23:24:00.708Z,9.05
2023-04-09T23:27:02.998Z,7.63
2023-04-09T23:30:05.898Z,9.00
2023-04-09T23:33:08.231Z,8.35
2023-04-09T23:36:10.847Z,9.48
2023-04-09T23:39:13.052Z,10.55
2023-04-09T23:42:15.540Z,9.77
2023-04-09T23:45:17.862Z,8.30
2023-04-09T23:48:20.025Z,8.93
2023-04-09T23:51:22.211Z,8.68
2023-04-09T23:54:24.386Z,8.57
2023-04-09T23:57:27.457Z,8.87
